• Join FlightAware (Why Join?)
  • Login
  • US Flag 
01:57AM EDT


 

Airport Tracker/Info


-or-


 

Live Flight TrackerFlight Track Log ✈ SKW5516 ✈ 07-Jun-2013 ✈ KIAD - KSAT

Flight Track Log - Related Links

Times and Time Zones

All times are in EDT time to prevent confusion due to time zone crossing. See the SKW5516 flight status page for this flight to view local times or setup timezone preferences in your user account.

Time Position Orientation Groundspeed Altitude Reporting Facility
EDT Latitude Longitude Course Direction KTS MPH feet Rate Location/Type
08:51AM 38.9167 -77.4333 229° Southwest 177 204 1,200  Level Potomac TRACON
08:52AM 38.8833 -77.4833 229° Southwest 210 242 2,800 1,920 Climbing Potomac TRACON
08:54AM 38.8011 -77.5733 220° Southwest 235 270 6,100 2,220 Climbing Washington Center
08:55AM 38.7706 -77.6631 246° West 255 293 8,600 1,980 Climbing Washington Center
08:56AM 38.7669 -77.7508 267° West 271 312 10,000 1,020 Climbing Washington Center
08:57AM 38.7753 -77.8603 276° West 277 319 10,700 1,140 Climbing Washington Center
08:58AM 38.7958 -77.9783 283° West 313 360 12,400 1,620 Climbing Washington Center
08:59AM 38.8269 -78.0964 289° West 336 387 14,100 1,680 Climbing Washington Center
09:00AM 38.8533 -78.2228 285° West 357 411 15,800 1,440 Climbing Washington Center
09:01AM 38.8525 -78.3558 270° West 369 425 17,000 600 Climbing Washington Center
09:02AM 38.8511 -78.4972 269° West 381 438 17,000 660 Level Washington Center
09:03AM 38.8497 -78.6383 269° West 400 460 18,300 1,380 Climbing Washington Center
09:04AM 38.8481 -78.7822 269° West 405 466 19,800 1,020 Climbing Washington Center
09:05AM 38.8464 -78.9208 269° West 400 460 20,400 1,080 Climbing Washington Center
09:06AM 38.8447 -79.0594 269° West 400 460 22,000 1,260 Climbing Washington Center
09:07AM 38.8428 -79.1978 269° West 400 460 23,000 840 Climbing Washington Center
09:08AM 38.8175 -79.3353 257° West 400 460 23,700 660 Climbing Washington Center
09:09AM 38.7942 -79.4806 258° West 410 472 24,400 660 Climbing Washington Center
09:10AM 38.7617 -79.6439 256° West 431 496 25,100 600 Climbing Washington Center
09:11AM 38.7383 -79.7811 258° West 431 496 25,700 660 Climbing Washington Center
09:12AM 38.6994 -79.9725 255° West 435 501 26,700 840 Climbing Indianapolis Center
09:13AM 38.6714 -80.1236 257° West 437 503 27,700 960 Climbing Indianapolis Center
09:14AM 38.6433 -80.2719 256° West 431 496 28,700 900 Climbing Indianapolis Center
09:15AM 38.6094 -80.4497 256° West 428 493 29,600 720 Climbing Indianapolis Center
09:16AM 38.5806 -80.5978 256° West 430 495 30,200 780 Climbing Indianapolis Center
09:17AM 38.5522 -80.7475 256° West 431 496 31,200 1,020 Climbing Indianapolis Center
09:18AM 38.5244 -80.8944 256° West 424 488 32,400 840 Climbing Indianapolis Center
09:20AM 38.4956 -81.0386 256° West 419 482 33,000 240 Climbing Indianapolis Center
09:21AM 38.4664 -81.1878 256° West 427 491 33,000  Level Indianapolis Center
09:22AM 38.4353 -81.3403 255° West 437 503 33,100 720 Climbing Indianapolis Center
09:23AM 38.4056 -81.4911 256° West 434 499 34,500 1,200 Climbing Indianapolis Center
09:24AM 38.3775 -81.6344 256° West 416 479 35,700 720 Climbing Indianapolis Center
09:25AM 38.3486 -81.7736 255° West 405 466 36,000 120 Climbing Indianapolis Center
09:26AM 38.3003 -81.9428 250° West 420 483 36,000 420 Level Indianapolis Center
09:27AM 38.2811 -82.0944 261° West 437 503 36,900 960 Climbing Indianapolis Center
09:28AM 38.2578 -82.2358 258° West 418 481 38,000 480 Climbing Indianapolis Center
09:29AM 38.2092 -82.3633 244° Southwest 399 459 38,000  Level Indianapolis Center
09:30AM 38.1611 -82.4933 245° Southwest 406 467 38,000  Level Indianapolis Center
09:31AM 38.1119 -82.6258 245° Southwest 415 478 38,000  Level Indianapolis Center
09:32AM 38.0528 -82.7825 244° Southwest 422 486 38,000  Level Indianapolis Center
09:33AM 38.0017 -82.9192 245° Southwest 428 493 38,000  Level Indianapolis Center
09:35AM 37.8997 -83.1889 244° Southwest 424 488 38,000  Level Indianapolis Center
09:36AM 37.8511 -83.3200 245° Southwest 416 479 38,000  Level Indianapolis Center
09:37AM 37.7931 -83.4708 244° Southwest 409 471 38,000  Level Indianapolis Center
09:38AM 37.7433 -83.5997 244° Southwest 409 471 38,000  Level Indianapolis Center
09:39AM 37.6933 -83.7275 244° Southwest 408 470 38,000  Level Indianapolis Center
09:40AM 37.6425 -83.8575 244° Southwest 412 474 38,000  Level Indianapolis Center
09:41AM 37.5928 -83.9858 244° Southwest 408 470 38,000  Level Indianapolis Center
09:42AM 37.5419 -84.1144 244° Southwest 411 473 38,000  Level Indianapolis Center
09:43AM 37.4836 -84.2633 244° Southwest 407 468 38,000  Level Indianapolis Center
09:44AM 37.4319 -84.3925 243° Southwest 411 473 38,000  Level Indianapolis Center
09:45AM 37.3817 -84.5206 244° Southwest 410 472 38,000  Level Indianapolis Center
09:46AM 37.3300 -84.6494 243° Southwest 409 471 38,000  Level Indianapolis Center
09:47AM 37.2794 -84.7764 243° Southwest 407 468 38,000  Level Indianapolis Center
09:48AM 37.2194 -84.9247 243° Southwest 408 470 38,000  Level Indianapolis Center
09:49AM 37.1686 -85.0514 243° Southwest 408 470 38,000  Level Indianapolis Center
09:50AM 37.1153 -85.1797 243° Southwest 412 474 38,000  Level Indianapolis Center
09:51AM 37.0642 -85.3072 243° Southwest 409 471 38,000  Level Indianapolis Center
09:53AM 37.0139 -85.4319 243° Southwest 406 467 38,000  Level Indianapolis Center
09:54AM 36.9586 -85.5650 243° Southwest 409 471 38,000  Level Indianapolis Center
09:55AM 36.9056 -85.6925 243° Southwest 409 471 38,000  Level Indianapolis Center
09:56AM 36.8536 -85.8200 243° Southwest 407 468 38,000  Level Indianapolis Center
09:57AM 36.7919 -85.9667 242° Southwest 406 467 38,000  Level Indianapolis Center
09:58AM 36.7400 -86.0922 243° Southwest 405 466 38,000  Level Indianapolis Center
09:58AM 36.7050 -86.1747 242° Southwest 420 483 38,000  Level Memphis Center
09:59AM 36.6550 -86.2989 243° Southwest 414 476 38,000  Level Memphis Center
10:00AM 36.6006 -86.4231 241° Southwest 409 471 38,000  Level Memphis Center
10:01AM 36.5464 -86.5547 243° Southwest 404 465 38,000  Level Memphis Center
10:02AM 36.4939 -86.6786 242° Southwest 404 465 38,000  Level Memphis Center
10:03AM 36.4411 -86.8050 243° Southwest 399 459 38,000  Level Memphis Center
10:04AM 36.4003 -86.9097 244° Southwest 406 467 38,000  Level Memphis Center
10:05AM 36.3375 -87.0517 241° Southwest 422 486 38,000  Level Memphis Center
10:06AM 36.2844 -87.1697 241° Southwest 413 475 38,000  Level Memphis Center
10:07AM 36.2292 -87.2928 241° Southwest 408 470 38,000  Level Memphis Center
10:08AM 36.1719 -87.4258 242° Southwest 408 470 38,000  Level Memphis Center
10:09AM 36.1183 -87.5511 242° Southwest 403 464 38,000  Level Memphis Center
10:10AM 36.0669 -87.6711 242° Southwest 408 470 38,000  Level Memphis Center
10:11AM 36.0131 -87.7908 241° Southwest 402 463 38,000  Level Memphis Center
10:12AM 35.9594 -87.9156 242° Southwest 402 463 38,000  Level Memphis Center
10:13AM 35.9053 -88.0350 241° Southwest 402 463 38,000  Level Memphis Center
10:14AM 35.8511 -88.1494 240° Southwest 397 457 38,000  Level Memphis Center
10:15AM 35.8050 -88.2556 242° Southwest 391 450 38,000  Level Memphis Center
10:16AM 35.7506 -88.3719 240° Southwest 391 450 38,000  Level Memphis Center
10:17AM 35.6983 -88.4908 242° Southwest 398 458 38,000  Level Memphis Center
10:18AM 35.6436 -88.6072 240° Southwest 398 458 38,000  Level Memphis Center
10:19AM 35.5889 -88.7256 240° Southwest 398 458 38,000  Level Memphis Center
10:20AM 35.5364 -88.8517 243° Southwest 398 458 38,000  Level Memphis Center
10:21AM 35.4856 -88.9700 242° Southwest 389 448 38,000  Level Memphis Center
10:22AM 35.4367 -89.0728 240° Southwest 389 448 38,000  Level Memphis Center
10:23AM 35.3856 -89.1881 241° Southwest 396 456 38,000  Level Memphis Center
10:24AM 35.3325 -89.3033 241° Southwest 396 456 38,000  Level Memphis Center
10:25AM 35.2769 -89.4211 240° Southwest 396 456 38,000  Level Memphis Center
10:26AM 35.2236 -89.5386 241° Southwest 396 456 38,000  Level Memphis Center
10:27AM 35.1703 -89.6586 241° Southwest 401 461 38,000  Level Memphis Center
10:28AM 35.1167 -89.7808 242° Southwest 406 467 38,000  Level Memphis Center
10:29AM 35.0608 -89.9031 241° Southwest 406 467 38,000  Level Memphis Center
10:30AM 34.9986 -90.0225 238° Southwest 422 486 38,000  Level Memphis Center
10:31AM 34.9300 -90.1317 233° Southwest 422 486 38,000  Level Memphis Center
10:32AM 34.8592 -90.2406 232° Southwest 415 478 38,000  Level Memphis Center
10:33AM 34.7925 -90.3494 233° Southwest 415 478 38,000  Level Memphis Center
10:34AM 34.7256 -90.4583 233° Southwest 415 478 38,000  Level Memphis Center
10:35AM 34.6503 -90.5742 232° Southwest 415 478 38,000  Level Memphis Center
10:36AM 34.5856 -90.6800 233° Southwest 406 467 38,000  Level Memphis Center
10:37AM 34.5183 -90.7856 232° Southwest 406 467 38,000  Level Memphis Center
10:38AM 34.4511 -90.8936 233° Southwest 406 467 38,000  Level Memphis Center
10:39AM 34.3839 -90.9989 232° Southwest 406 467 38,000  Level Memphis Center
10:40AM 34.3167 -91.1067 233° Southwest 406 467 38,000  Level Memphis Center
10:41AM 34.2511 -91.2114 233° Southwest 406 467 38,000  Level Memphis Center
10:42AM 34.1817 -91.3189 232° Southwest 406 467 38,000  Level Memphis Center
10:43AM 34.1161 -91.4233 233° Southwest 411 473 38,000  Level Memphis Center
10:44AM 34.0461 -91.5303 232° Southwest 406 467 38,000  Level Memphis Center
10:45AM 33.9847 -91.6272 233° Southwest 406 467 38,000  Level Memphis Center
10:48AM 33.8297 -91.8706 233° Southwest 403 464 38,000  Level Fort Worth Center
10:49AM 33.7594 -91.9772 232° Southwest 408 470 38,000  Level Fort Worth Center
10:50AM 33.6908 -92.0839 232° Southwest 413 475 38,000  Level Fort Worth Center
10:51AM 33.6203 -92.1931 232° Southwest 413 475 38,000  Level Fort Worth Center
10:52AM 33.5517 -92.2992 232° Southwest 413 475 38,000  Level Fort Worth Center
10:53AM 33.4786 -92.4056 231° Southwest 413 475 38,000  Level Fort Worth Center
10:54AM 33.4119 -92.5114 233° Southwest 413 475 38,000  Level Fort Worth Center
10:55AM 33.3392 -92.6222 232° Southwest 413 475 38,000  Level Fort Worth Center
10:56AM 33.2678 -92.7256 230° Southwest 413 475 38,000  Level Fort Worth Center
10:57AM 33.1814 -92.8169 222° Southwest 407 468 38,000  Level Fort Worth Center
10:58AM 33.0906 -92.9033 219° Southwest 414 476 38,000  Level Fort Worth Center
10:59AM 32.9978 -92.9922 219° Southwest 424 488 38,000  Level Fort Worth Center
11:00AM 32.9069 -93.0783 219° Southwest 424 488 38,000  Level Fort Worth Center
11:01AM 32.8158 -93.1644 218° Southwest 429 494 38,000  Level Fort Worth Center
11:02AM 32.7250 -93.2525 219° Southwest 429 494 38,000  Level Fort Worth Center
11:03AM 32.6317 -93.3383 218° Southwest 429 494 38,000  Level Fort Worth Center
11:04AM 32.5406 -93.4261 219° Southwest 429 494 38,000  Level Fort Worth Center
11:05AM 32.4475 -93.5142 219° Southwest 429 494 38,000  Level Fort Worth Center
11:06AM 32.3542 -93.6042 219° Southwest 435 501 38,000  Level Fort Worth Center
11:07AM 32.2606 -93.6917 218° Southwest 435 501 38,000  Level Fort Worth Center
11:08AM 32.1594 -93.7939 221° Southwest 435 501 38,000  Level Fort Worth Center
11:09AM 32.0658 -93.8808 218° Southwest 435 501 38,000  Level Fort Worth Center
11:10AM 31.9822 -93.9600 219° Southwest 441 507 38,000  Level Fort Worth Center
11:11AM 31.8867 -94.0517 219° Southwest 441 507 38,000  Level Fort Worth Center
11:12AM 31.7600 -94.1647 217° Southwest 430 495 38,000  Level Houston Center
11:13AM 31.6672 -94.2514 218° Southwest 426 490 38,000  Level Houston Center
11:14AM 31.5733 -94.3378 218° Southwest 428 493 38,000  Level Houston Center
11:15AM 31.4800 -94.4242 218° Southwest 428 493 38,000  Level Houston Center
11:16AM 31.3861 -94.5094 218° Southwest 426 490 38,000  Level Houston Center
11:17AM 31.2914 -94.5958 218° Southwest 427 491 38,000  Level Houston Center
11:18AM 31.1886 -94.6936 219° Southwest 445 512 38,000  Level Houston Center
11:19AM 31.0958 -94.7856 220° Southwest 437 503 38,000  Level Houston Center
11:20AM 30.9906 -94.9017 223° Southwest 432 497 38,000  Level Houston Center
11:21AM 30.9011 -94.9983 223° Southwest 436 502 38,000  Level Houston Center
11:22AM 30.8117 -95.0936 222° Southwest 436 502 38,000  Level Houston Center
11:23AM 30.7228 -95.1889 223° Southwest 434 499 38,000  Level Houston Center
11:24AM 30.6333 -95.2842 223° Southwest 437 503 38,000  Level Houston Center
11:25AM 30.5447 -95.3806 223° Southwest 436 502 38,000  Level Houston Center
11:27AM 30.4436 -95.4850 222° Southwest 437 503 38,000  Level Houston Center
11:28AM 30.3542 -95.5814 223° Southwest 441 507 38,000  Level Houston Center
11:29AM 30.2642 -95.6750 222° Southwest 438 504 38,000  Level Houston Center
11:30AM 30.1742 -95.7697 222° Southwest 440 506 38,000  Level Houston Center
11:31AM 30.0664 -95.8836 222° Southwest 441 507 38,000  Level Houston Center
11:32AM 29.9747 -95.9783 222° Southwest 442 509 38,000  Level Houston Center
11:33AM 29.9158 -96.1092 243° Southwest 433 498 38,000 -60 Level Houston Center
11:34AM 29.9100 -96.2431 267° West 423 487 37,900 -60 Descending Houston Center
11:35AM 29.9097 -96.3772 270° West 422 486 37,900 -960 Level Houston Center
11:36AM 29.9092 -96.5153 270° West 432 497 36,000 -2,040 Descending Houston Center
11:37AM 29.9089 -96.6572 270° West 445 512 33,700 -2,580 Descending Houston Center
11:38AM 29.9075 -96.8331 270° West 463 533 30,700 -2,760 Descending Houston Center
11:39AM 29.9064 -96.9814 270° West 467 537 28,000 -2,580 Descending Houston Center
11:40AM 29.9047 -97.1247 269° West 454 522 25,400 -2,580 Descending Houston Center
11:41AM 29.9042 -97.2694 270° West 455 524 22,700 -2,640 Descending Houston Center
11:42AM 29.9031 -97.4108 270° West 447 514 20,000 -2,760 Descending Houston Center
11:43AM 29.9011 -97.5697 269° West 417 480 17,100 -2,700 Descending Houston Center
11:44AM 29.8992 -97.6278 268° West 398 458 16,100 -2,520 Descending Houston Center
11:44AM 29.8992 -97.6928 270° West 372 428 14,800 -1,920 Descending Houston Center
11:45AM 29.8989 -97.8183 270° West 363 418 13,000 -960 Descending Houston Center
11:46AM 29.8742 -97.9131 253° West 336 387 12,900 -1,020 Descending Houston Center
11:47AM 29.8369 -98.0069 245° Southwest 313 360 11,100 -1,680 Descending Houston Center
11:48AM 29.8025 -98.0858 243° Southwest 301 346 9,700 -1,620 Descending Houston Center
11:48AM 29.7917 -98.1108 243° Southwest 291 335 9,200 -1,800 Descending Houston Center
11:49AM 29.7644 -98.1725 243° Southwest 279 321 7,700 -1,800 Descending Houston Center
11:50AM 29.7286 -98.2611 245° Southwest 280 322 6,000 -900 Descending Houston Center
11:51AM 29.6994 -98.3297 244° Southwest 236 272 6,000  Level Houston Center
11:51AM 29.6922 -98.3458 243° Southwest 240 276 6,000  Level Houston Center
11:52AM 29.6700 -98.3981 244° Southwest 234 269 6,000  Level Houston Center
11:52AM 29.6611 -98.4186 244° Southwest 237 273 6,000 -1,140 Level Houston Center
11:53AM 29.6553 -98.4672 262° West 238 274 4,900 -1,560 Descending Houston Center
11:53AM 29.6658 -98.4867 302° West 239 275 4,400 -900 Descending Houston Center
11:54AM 29.6892 -98.5378 298° West 230 265 4,000 -420 Descending Houston Center
11:54AM 29.6911 -98.5561 277° West 224 258 4,000 -420 Level Houston Center
11:55AM 29.6647 -98.5936 231° Southwest 208 239 3,600 -420 Descending Houston Center
11:56AM 29.6514 -98.6031 212° Southwest 209 241 3,600 -420 Level Houston Center
11:56AM 29.6203 -98.5892 159° South 182 209 3,200 -720 Descending Houston Center
11:57AM 29.6081 -98.5711 128° Southeast 178 205 2,900 -720 Descending Houston Center
11:57AM 29.5894 -98.5497 135° Southeast 159 183 2,500 -720 Descending Houston Center
11:58AM 29.5811 -98.5350 123° Southeast 165 190 2,200 -1,020 Descending Houston Center
11:59AM 29.5500 -98.4939 131° Southeast 151 174 1,100 -1,080 Descending Houston Center
12:01PM 29.5340 -98.4691 24° Northeast  Level Estimated
12:08PM 29.5333 -98.4667 16° North  Level FlightAware Approximate
12:09PM 29.5340 -98.4691 16° North  Level Estimated